createdAt,value
2022-10-15T00:00:24.749Z,999.90
2022-10-15T00:02:51.885Z,999.90
2022-10-15T00:05:19.342Z,999.90
2022-10-15T00:07:46.501Z,999.90
2022-10-15T00:10:13.942Z,999.90
2022-10-15T00:12:41.610Z,999.90
2022-10-15T00:15:09.022Z,999.90
2022-10-15T00:17:36.521Z,999.90
2022-10-15T00:20:09.624Z,999.90
2022-10-15T00:22:37.391Z,999.90
2022-10-15T00:25:05.577Z,999.90
2022-10-15T00:27:32.723Z,999.90
2022-10-15T00:30:00.365Z,999.90
2022-10-15T00:32:27.729Z,999.90
2022-10-15T00:34:55.062Z,999.90
2022-10-15T00:37:22.575Z,999.90
2022-10-15T00:39:49.790Z,999.90
2022-10-15T00:42:17.230Z,999.90
2022-10-15T00:44:50.287Z,999.90
2022-10-15T00:47:17.622Z,999.90
2022-10-15T00:50:07.291Z,999.90
2022-10-15T00:52:42.262Z,999.90
2022-10-15T00:55:19.334Z,999.90
2022-10-15T00:57:49.443Z,999.90
2022-10-15T01:00:17.409Z,999.90
2022-10-15T01:02:45.691Z,999.90
2022-10-15T01:05:14.133Z,999.90
2022-10-15T01:07:41.302Z,999.90
2022-10-15T01:10:09.523Z,999.90
2022-10-15T01:13:18.534Z,999.90
2022-10-15T01:16:09.548Z,999.90
2022-10-15T01:18:46.738Z,999.90
2022-10-15T01:21:24.846Z,999.90
2022-10-15T01:24:25.963Z,999.90
2022-10-15T01:27:23.530Z,999.90
2022-10-15T01:30:02.363Z,999.90
2022-10-15T01:32:34.939Z,999.90
2022-10-15T01:35:39.726Z,999.90
2022-10-15T01:38:42.198Z,999.90
2022-10-15T01:41:41.590Z,999.90
2022-10-15T01:44:24.491Z,999.90
2022-10-15T01:47:19.497Z,999.90
2022-10-15T01:49:47.654Z,999.90
2022-10-15T01:52:19.438Z,999.90
2022-10-15T01:54:47.294Z,999.90
2022-10-15T01:57:15.746Z,999.90
2022-10-15T01:59:43.394Z,999.90
2022-10-15T02:02:10.706Z,999.90
2022-10-15T02:04:40.394Z,999.90
2022-10-15T02:07:12.681Z,999.90
2022-10-15T02:09:42.897Z,999.90
2022-10-15T02:12:38.565Z,999.90
2022-10-15T02:15:11.795Z,999.90
2022-10-15T02:17:41.962Z,999.90
2022-10-15T02:20:16.338Z,999.90
2022-10-15T02:22:50.263Z,999.90
2022-10-15T02:25:22.277Z,999.90
2022-10-15T02:27:51.614Z,999.90
2022-10-15T02:30:19.090Z,999.90
2022-10-15T02:32:51.855Z,999.90
2022-10-15T02:35:22.035Z,999.90
2022-10-15T02:37:52.613Z,999.90
2022-10-15T02:40:27.179Z,999.90
2022-10-15T02:42:55.490Z,999.90
2022-10-15T02:45:22.698Z,999.90
2022-10-15T02:47:50.232Z,999.90
2022-10-15T02:50:19.528Z,999.90
2022-10-15T02:52:46.815Z,999.90
2022-10-15T02:55:14.123Z,999.90
2022-10-15T02:57:42.170Z,999.90
2022-10-15T03:00:09.741Z,999.90
2022-10-15T03:02:39.023Z,999.90
2022-10-15T03:05:06.978Z,999.90
2022-10-15T03:07:34.243Z,999.90
2022-10-15T03:10:01.683Z,999.90
2022-10-15T03:12:29.381Z,999.90
2022-10-15T03:14:57.122Z,999.90
2022-10-15T03:17:25.266Z,999.90
2022-10-15T03:19:52.707Z,999.90
2022-10-15T03:22:19.826Z,999.90
2022-10-15T03:24:51.041Z,999.90
2022-10-15T03:27:23.912Z,999.90
2022-10-15T03:29:51.662Z,999.90
2022-10-15T03:32:18.897Z,999.90
2022-10-15T03:34:46.146Z,999.90
2022-10-15T03:37:15.325Z,999.90
2022-10-15T03:39:42.458Z,999.90
2022-10-15T03:42:10.443Z,999.90
2022-10-15T03:44:45.021Z,999.90
2022-10-15T03:47:16.001Z,999.90
2022-10-15T03:49:46.010Z,999.90
2022-10-15T03:52:13.731Z,999.90
2022-10-15T03:54:42.158Z,999.90
2022-10-15T03:57:10.679Z,999.90
2022-10-15T04:02:17.229Z,999.90
2022-10-15T04:04:44.637Z,999.90
2022-10-15T04:07:11.941Z,999.90
2022-10-15T04:09:39.533Z,999.90
2022-10-15T04:12:32.588Z,999.90
2022-10-15T04:14:59.801Z,999.90
2022-10-15T04:17:26.955Z,999.90
2022-10-15T04:19:54.085Z,999.90
2022-10-15T04:22:22.577Z,999.90
2022-10-15T04:24:55.388Z,999.90
2022-10-15T04:27:27.935Z,999.90
2022-10-15T04:30:05.204Z,999.90
2022-10-15T04:32:32.766Z,999.90
2022-10-15T04:35:00.140Z,999.90
2022-10-15T04:37:46.495Z,999.90
2022-10-15T04:40:13.721Z,999.90
2022-10-15T04:42:40.881Z,999.90
2022-10-15T04:45:08.637Z,999.90
2022-10-15T04:47:35.731Z,999.90
2022-10-15T04:50:08.180Z,999.90
2022-10-15T04:53:01.694Z,999.90
2022-10-15T04:55:32.978Z,999.90
2022-10-15T04:58:01.707Z,999.90
2022-10-15T05:00:30.541Z,999.90
2022-10-15T05:03:11.937Z,999.90
2022-10-15T05:05:48.746Z,999.90
2022-10-15T05:08:15.971Z,999.90
2022-10-15T05:11:13.989Z,999.90
2022-10-15T05:13:41.254Z,999.90
2022-10-15T05:16:28.236Z,999.90
2022-10-15T05:18:57.766Z,999.90
2022-10-15T05:21:24.922Z,999.90
2022-10-15T05:23:56.283Z,999.90
2022-10-15T05:26:43.735Z,999.90
2022-10-15T05:29:11.024Z,999.90
2022-10-15T05:31:38.822Z,999.90
2022-10-15T05:34:15.898Z,999.90
2022-10-15T05:36:52.449Z,999.90
2022-10-15T05:39:19.665Z,999.90
2022-10-15T05:41:46.795Z,999.90
2022-10-15T05:44:14.516Z,999.90
2022-10-15T05:46:41.740Z,999.90
2022-10-15T05:49:10.646Z,999.90
2022-10-15T05:51:48.027Z,999.90
2022-10-15T05:54:24.109Z,999.90
2022-10-15T05:56:51.390Z,999.90
2022-10-15T05:59:18.596Z,999.90
2022-10-15T06:01:45.733Z,999.90
2022-10-15T06:04:14.462Z,999.90
2022-10-15T06:06:42.583Z,999.90
2022-10-15T06:09:09.790Z,999.90
2022-10-15T06:11:37.299Z,999.90
2022-10-15T06:14:04.563Z,999.90
2022-10-15T06:16:31.744Z,999.90
2022-10-15T06:18:59.113Z,999.90
2022-10-15T06:21:26.289Z,999.90
2022-10-15T06:23:53.497Z,999.90
2022-10-15T06:26:20.707Z,999.90
2022-10-15T06:28:48.993Z,999.90
2022-10-15T06:31:16.467Z,999.90
2022-10-15T06:33:43.945Z,999.90
2022-10-15T06:36:13.509Z,999.90
2022-10-15T06:38:40.648Z,999.90
2022-10-15T06:41:08.592Z,999.90
2022-10-15T06:43:36.383Z,999.90
2022-10-15T06:46:04.884Z,999.90
2022-10-15T06:48:32.764Z,977.20
2022-10-15T06:51:00.753Z,956.20
2022-10-15T06:53:28.915Z,945.78
2022-10-15T06:56:00.448Z,955.75
2022-10-15T06:58:27.598Z,907.08
2022-10-15T07:01:00.761Z,982.60
2022-10-15T07:03:28.197Z,992.70
2022-10-15T07:05:55.440Z,996.55
2022-10-15T07:08:22.585Z,999.90
2022-10-15T07:10:49.747Z,999.90
2022-10-15T07:13:16.887Z,999.90
2022-10-15T07:15:46.185Z,999.90
2022-10-15T07:18:13.390Z,999.90
2022-10-15T07:20:41.704Z,999.90
2022-10-15T07:23:08.975Z,999.90
2022-10-15T07:25:36.102Z,999.90
2022-10-15T07:28:03.307Z,999.90
2022-10-15T07:30:30.562Z,999.90
2022-10-15T07:32:58.148Z,999.90
2022-10-15T07:35:26.271Z,999.90
2022-10-15T07:37:53.552Z,999.90
2022-10-15T07:40:20.888Z,999.90
2022-10-15T07:42:54.802Z,999.90
2022-10-15T07:45:22.611Z,999.90
2022-10-15T07:47:49.852Z,999.90
2022-10-15T07:50:17.423Z,999.90
2022-10-15T07:52:45.427Z,999.90
2022-10-15T07:55:13.006Z,999.90
2022-10-15T07:57:40.447Z,999.90
2022-10-15T08:00:08.004Z,999.90
2022-10-15T08:02:39.785Z,999.90
2022-10-15T08:05:07.592Z,999.90
2022-10-15T08:07:34.802Z,999.90
2022-10-15T08:10:06.390Z,999.90
2022-10-15T08:12:33.578Z,999.90
2022-10-15T08:15:00.808Z,999.90
2022-10-15T08:17:27.999Z,999.90
2022-10-15T08:19:55.502Z,999.90
2022-10-15T08:22:22.928Z,999.90
2022-10-15T08:24:50.265Z,999.90
2022-10-15T08:27:17.363Z,999.90
2022-10-15T08:29:47.452Z,999.90
2022-10-15T08:32:14.642Z,999.90
2022-10-15T08:34:41.953Z,999.90
2022-10-15T08:37:09.201Z,999.90
2022-10-15T08:39:36.497Z,999.90
2022-10-15T08:42:06.295Z,999.90
2022-10-15T08:44:44.250Z,999.90
2022-10-15T08:47:14.648Z,999.90
2022-10-15T08:49:48.254Z,999.90
2022-10-15T08:52:19.659Z,999.90
2022-10-15T08:54:47.111Z,999.90
2022-10-15T08:57:46.994Z,999.90
2022-10-15T09:00:21.993Z,999.90
2022-10-15T09:02:58.321Z,999.90
2022-10-15T09:05:47.325Z,999.90
2022-10-15T09:08:14.489Z,999.90
2022-10-15T09:10:50.686Z,999.90
2022-10-15T09:13:24.673Z,999.90
2022-10-15T09:15:54.671Z,999.90
2022-10-15T09:18:25.067Z,999.90
2022-10-15T09:20:53.509Z,999.90
2022-10-15T09:23:22.985Z,999.90
2022-10-15T09:25:57.725Z,999.90
2022-10-15T09:28:27.744Z,999.90
2022-10-15T09:30:58.064Z,999.90
2022-10-15T09:33:47.511Z,999.90
2022-10-15T09:36:17.719Z,999.90
2022-10-15T09:38:53.389Z,999.90
2022-10-15T09:41:23.351Z,999.90
2022-10-15T09:43:52.148Z,999.90
2022-10-15T09:46:20.303Z,999.90
2022-10-15T09:48:57.946Z,999.90
2022-10-15T09:51:28.597Z,999.90
2022-10-15T09:54:18.669Z,999.90
2022-10-15T09:56:54.789Z,999.90
2022-10-15T09:59:23.196Z,999.90
2022-10-15T10:01:57.768Z,999.90
2022-10-15T10:04:28.243Z,999.90
2022-10-15T10:06:59.157Z,999.90
2022-10-15T10:09:31.601Z,999.90
2022-10-15T10:12:01.378Z,999.90
2022-10-15T10:14:33.211Z,999.90
2022-10-15T10:17:06.587Z,999.90
2022-10-15T10:19:33.747Z,999.90
2022-10-15T10:22:13.782Z,999.90
2022-10-15T10:24:40.977Z,999.90
2022-10-15T10:27:38.111Z,999.90
2022-10-15T10:30:07.642Z,999.90
2022-10-15T10:32:35.433Z,999.90
2022-10-15T10:35:03.752Z,999.90
2022-10-15T10:37:42.053Z,999.90
2022-10-15T10:40:22.318Z,999.90
2022-10-15T10:42:49.487Z,999.90
2022-10-15T10:45:18.871Z,999.90
2022-10-15T10:47:46.407Z,999.90
2022-10-15T10:50:27.978Z,999.90
2022-10-15T10:52:55.235Z,999.90
2022-10-15T10:55:25.129Z,999.90
2022-10-15T10:57:54.382Z,999.90
2022-10-15T11:00:36.729Z,999.90
2022-10-15T11:03:04.286Z,999.90
2022-10-15T11:05:34.551Z,999.90
2022-10-15T11:08:04.587Z,999.90
2022-10-15T11:10:48.022Z,999.90
2022-10-15T11:13:15.181Z,999.90
2022-10-15T11:15:45.323Z,999.90
2022-10-15T11:18:27.566Z,999.90
2022-10-15T11:20:59.754Z,999.90
2022-10-15T11:24:09.800Z,999.90
2022-10-15T11:26:59.141Z,999.90
2022-10-15T11:29:58.906Z,999.90
2022-10-15T11:33:05.327Z,999.90
2022-10-15T11:35:52.548Z,999.90
2022-10-15T11:38:26.373Z,999.90
2022-10-15T11:40:56.313Z,999.90
2022-10-15T11:43:35.047Z,999.90
2022-10-15T11:46:07.429Z,999.90
2022-10-15T11:49:02.145Z,999.90
2022-10-15T11:51:45.667Z,999.90
2022-10-15T11:54:33.561Z,999.90
2022-10-15T11:57:03.653Z,999.90
2022-10-15T11:59:40.625Z,999.90
2022-10-15T12:02:15.829Z,999.90
2022-10-15T12:05:30.919Z,999.90
2022-10-15T12:07:58.442Z,999.90
2022-10-15T12:10:32.121Z,999.90
2022-10-15T12:13:03.909Z,999.90
2022-10-15T12:15:43.371Z,999.90
2022-10-15T12:18:25.903Z,999.90
2022-10-15T12:20:55.545Z,999.90
2022-10-15T12:23:24.056Z,999.90
2022-10-15T12:25:51.347Z,999.90
2022-10-15T12:28:29.867Z,999.90
2022-10-15T12:30:58.669Z,999.90
2022-10-15T12:33:31.950Z,999.90
2022-10-15T12:36:00.866Z,999.90
2022-10-15T12:38:32.698Z,999.90
2022-10-15T12:41:08.943Z,999.90
2022-10-15T12:43:38.400Z,999.90
2022-10-15T12:46:06.775Z,999.90
2022-10-15T12:48:36.184Z,999.90
2022-10-15T12:51:21.775Z,999.90
2022-10-15T12:53:50.391Z,999.90
2022-10-15T12:56:17.617Z,999.90
2022-10-15T12:58:46.640Z,999.90
2022-10-15T13:01:13.861Z,999.90
2022-10-15T13:03:50.451Z,999.90
2022-10-15T13:06:20.835Z,999.90
2022-10-15T13:09:08.507Z,999.90
2022-10-15T13:11:46.635Z,999.90
2022-10-15T13:14:13.965Z,999.90
2022-10-15T13:16:45.415Z,999.90
2022-10-15T13:19:19.903Z,999.90
2022-10-15T13:21:53.935Z,999.90
2022-10-15T13:24:23.051Z,999.90
2022-10-15T13:26:50.821Z,999.90
2022-10-15T13:29:21.663Z,999.90
2022-10-15T13:31:49.047Z,999.90
2022-10-15T13:34:24.975Z,999.90
2022-10-15T13:36:52.698Z,999.90
2022-10-15T13:42:08.426Z,999.90
2022-10-15T13:44:35.699Z,999.90
2022-10-15T13:47:03.100Z,999.90
2022-10-15T13:49:30.330Z,999.90
2022-10-15T13:51:57.531Z,999.90
2022-10-15T13:54:26.331Z,999.90
2022-10-15T13:56:55.763Z,999.90
2022-10-15T13:59:23.631Z,999.90
2022-10-15T14:02:00.732Z,999.90
2022-10-15T14:04:32.654Z,999.90
2022-10-15T14:07:21.911Z,999.90
2022-10-15T14:09:49.967Z,999.90
2022-10-15T14:12:17.114Z,999.90
2022-10-15T14:14:46.791Z,999.90
2022-10-15T14:17:26.371Z,999.90
2022-10-15T14:20:21.711Z,999.90
2022-10-15T14:22:43.562Z,999.90
2022-10-15T14:27:48.116Z,999.90
2022-10-15T14:30:21.358Z,999.90
2022-10-15T14:32:52.732Z,999.90
2022-10-15T14:35:46.411Z,999.90
2022-10-15T14:38:13.762Z,999.90
2022-10-15T14:40:40.906Z,999.90
2022-10-15T14:43:14.859Z,999.90
2022-10-15T14:45:51.226Z,999.90
2022-10-15T14:48:24.082Z,999.90
2022-10-15T14:50:51.524Z,999.90
2022-10-15T14:53:20.205Z,999.90
2022-10-15T14:55:49.435Z,999.90
2022-10-15T14:58:18.866Z,999.90
2022-10-15T15:00:49.541Z,999.90
2022-10-15T15:03:19.760Z,999.90
2022-10-15T15:05:48.636Z,999.90
2022-10-15T15:08:16.225Z,999.90
2022-10-15T15:10:44.258Z,999.90
2022-10-15T15:13:16.759Z,999.90
2022-10-15T15:15:44.037Z,999.90
2022-10-15T15:18:11.668Z,999.90
2022-10-15T15:20:40.339Z,999.90
2022-10-15T15:23:07.838Z,999.90
2022-10-15T15:25:36.950Z,999.90
2022-10-15T15:28:04.671Z,999.90
2022-10-15T15:30:33.322Z,999.90
2022-10-15T15:33:00.813Z,999.90
2022-10-15T15:35:40.261Z,999.90
2022-10-15T15:38:11.292Z,999.90
2022-10-15T15:40:38.626Z,999.90
2022-10-15T15:43:05.902Z,999.90
2022-10-15T15:45:33.386Z,999.90
2022-10-15T15:48:03.457Z,999.90
2022-10-15T15:50:30.725Z,999.90
2022-10-15T15:52:58.262Z,999.90
2022-10-15T15:55:25.532Z,999.90
2022-10-15T15:57:52.630Z,999.90
2022-10-15T16:00:20.073Z,999.90
2022-10-15T16:02:47.478Z,999.90
2022-10-15T16:05:15.886Z,999.90
2022-10-15T16:07:43.574Z,999.90
2022-10-15T16:10:12.486Z,999.90
2022-10-15T16:12:40.147Z,999.90
2022-10-15T16:15:10.268Z,999.90
2022-10-15T16:17:40.782Z,999.90
2022-10-15T16:20:08.273Z,999.90
2022-10-15T16:22:35.618Z,999.90
2022-10-15T16:25:02.760Z,999.90
2022-10-15T16:27:30.009Z,999.90
2022-10-15T16:29:57.692Z,999.90
2022-10-15T16:32:25.723Z,999.90
2022-10-15T16:34:53.019Z,999.90
2022-10-15T16:37:20.241Z,999.90
2022-10-15T16:39:47.638Z,999.90
2022-10-15T16:42:14.824Z,999.90
2022-10-15T16:44:42.133Z,999.90
2022-10-15T16:47:09.820Z,999.90
2022-10-15T16:49:37.290Z,999.90
2022-10-15T16:52:05.130Z,999.90
2022-10-15T16:54:32.274Z,999.90
2022-10-15T16:56:59.487Z,999.90
2022-10-15T16:59:26.865Z,999.90
2022-10-15T17:01:54.198Z,999.90
2022-10-15T17:04:21.418Z,999.90
2022-10-15T17:06:49.092Z,999.90
2022-10-15T17:09:16.190Z,999.90
2022-10-15T17:11:45.937Z,999.90
2022-10-15T17:14:17.200Z,999.90
2022-10-15T17:16:45.708Z,999.90
2022-10-15T17:19:13.624Z,999.90
2022-10-15T17:21:42.657Z,999.90
2022-10-15T17:24:12.450Z,999.90
2022-10-15T17:26:40.470Z,999.90
2022-10-15T17:29:09.670Z,999.90
2022-10-15T17:31:37.495Z,999.90
2022-10-15T17:34:06.603Z,999.90
2022-10-15T17:36:36.881Z,999.90
2022-10-15T17:39:04.268Z,999.90
2022-10-15T17:41:31.588Z,999.90
2022-10-15T17:43:59.293Z,999.90
2022-10-15T17:46:27.966Z,999.90
2022-10-15T17:48:55.960Z,999.90
2022-10-15T17:51:24.311Z,999.90
2022-10-15T17:53:55.970Z,999.90
2022-10-15T17:56:26.154Z,999.90
2022-10-15T17:58:56.977Z,999.90
2022-10-15T18:01:56.307Z,999.90
2022-10-15T18:04:19.622Z,999.90
2022-10-15T18:06:46.871Z,999.90
2022-10-15T18:09:24.086Z,999.90
2022-10-15T18:11:51.323Z,999.90
2022-10-15T18:16:45.887Z,999.90
2022-10-15T18:19:13.041Z,999.90
2022-10-15T18:21:40.349Z,999.90
2022-10-15T18:24:07.627Z,999.90
2022-10-15T18:26:34.833Z,999.90
2022-10-15T18:29:02.135Z,999.90
2022-10-15T18:31:31.171Z,999.90
2022-10-15T18:33:58.482Z,999.90
2022-10-15T18:36:27.506Z,999.90
2022-10-15T18:38:54.957Z,999.90
2022-10-15T18:41:22.182Z,999.90
2022-10-15T18:43:53.352Z,999.90
2022-10-15T18:46:20.660Z,999.90
2022-10-15T18:48:48.864Z,999.90
2022-10-15T18:51:16.499Z,999.90
2022-10-15T18:53:43.776Z,999.90
2022-10-15T18:56:14.545Z,999.90
2022-10-15T18:58:45.675Z,999.90
2022-10-15T19:01:33.818Z,999.90
2022-10-15T19:04:02.785Z,999.90
2022-10-15T19:06:35.440Z,999.90
2022-10-15T19:09:03.736Z,999.90
2022-10-15T19:11:33.815Z,999.90
2022-10-15T19:14:03.128Z,999.90
2022-10-15T19:16:30.229Z,999.90
2022-10-15T19:19:02.460Z,999.90
2022-10-15T19:21:30.693Z,999.90
2022-10-15T19:23:57.972Z,999.90
2022-10-15T19:26:25.272Z,999.90
2022-10-15T19:28:53.541Z,999.90
2022-10-15T19:31:27.966Z,999.90
2022-10-15T19:33:57.977Z,999.90
2022-10-15T19:36:29.437Z,999.90
2022-10-15T19:38:56.923Z,999.90
2022-10-15T19:41:24.382Z,999.90
2022-10-15T19:43:52.133Z,999.90
2022-10-15T19:46:19.493Z,999.90
2022-10-15T19:48:47.648Z,999.90
2022-10-15T19:51:14.847Z,999.90
2022-10-15T19:53:41.963Z,999.90
2022-10-15T19:56:10.765Z,999.90
2022-10-15T19:58:37.930Z,999.90
2022-10-15T20:01:05.759Z,999.90
2022-10-15T20:03:33.895Z,999.90
2022-10-15T20:06:08.743Z,999.90
2022-10-15T20:08:36.421Z,999.90
2022-10-15T20:11:05.676Z,999.90
2022-10-15T20:13:32.870Z,999.90
2022-10-15T20:16:02.855Z,999.90
2022-10-15T20:18:30.053Z,999.90
2022-10-15T20:20:57.182Z,999.90
2022-10-15T20:23:26.287Z,999.90
2022-10-15T20:25:53.486Z,999.90
2022-10-15T20:28:20.842Z,999.90
2022-10-15T20:30:49.699Z,999.90
2022-10-15T20:33:16.933Z,999.90
2022-10-15T20:35:44.101Z,999.90
2022-10-15T20:38:12.134Z,999.90
2022-10-15T20:40:40.760Z,999.90
2022-10-15T20:43:08.139Z,999.90
2022-10-15T20:45:41.781Z,999.90
2022-10-15T20:48:12.305Z,999.90
2022-10-15T20:50:39.503Z,999.90
2022-10-15T20:53:06.675Z,999.90
2022-10-15T20:55:35.417Z,999.90
2022-10-15T20:58:02.995Z,999.90
2022-10-15T21:00:30.327Z,999.90
2022-10-15T21:02:57.507Z,999.90
2022-10-15T21:05:24.668Z,999.90
2022-10-15T21:07:51.944Z,999.90
2022-10-15T21:10:19.113Z,999.90
2022-10-15T21:12:46.313Z,999.90
2022-10-15T21:15:13.522Z,999.90
2022-10-15T21:17:41.853Z,999.90
2022-10-15T21:20:09.428Z,999.90
2022-10-15T21:22:36.606Z,999.90
2022-10-15T21:25:04.322Z,999.90
2022-10-15T21:27:31.582Z,999.90
2022-10-15T21:29:58.843Z,999.90
2022-10-15T21:32:26.032Z,999.90
2022-10-15T21:34:53.268Z,999.90
2022-10-15T21:37:20.525Z,999.90
2022-10-15T21:39:47.649Z,999.90
2022-10-15T21:42:14.862Z,999.90
2022-10-15T21:44:41.958Z,999.90
2022-10-15T21:47:10.454Z,999.90
2022-10-15T21:49:41.638Z,999.90
2022-10-15T21:52:08.729Z,999.90
2022-10-15T21:54:35.889Z,999.90
2022-10-15T21:57:03.055Z,999.90
2022-10-15T21:59:30.131Z,999.90
2022-10-15T22:01:57.380Z,999.90
2022-10-15T22:04:24.574Z,999.90
2022-10-15T22:06:51.699Z,999.90
2022-10-15T22:09:18.769Z,999.90
2022-10-15T22:11:45.934Z,999.90
2022-10-15T22:14:13.407Z,999.90
2022-10-15T22:16:41.213Z,999.90
2022-10-15T22:19:09.721Z,999.90
2022-10-15T22:21:37.743Z,999.90
2022-10-15T22:24:07.187Z,999.90
2022-10-15T22:26:38.469Z,999.90
2022-10-15T22:29:06.550Z,999.90
2022-10-15T22:31:34.281Z,999.90
2022-10-15T22:34:01.912Z,999.90
2022-10-15T22:36:29.906Z,999.90
2022-10-15T22:38:58.664Z,999.90
2022-10-15T22:41:25.873Z,999.90
2022-10-15T22:43:52.982Z,999.90
2022-10-15T22:46:20.169Z,999.90
2022-10-15T22:48:49.307Z,999.90
2022-10-15T22:51:16.541Z,999.90
2022-10-15T22:53:43.904Z,999.90
2022-10-15T22:56:18.538Z,999.90
2022-10-15T22:58:45.911Z,999.90
2022-10-15T23:01:32.042Z,999.90
2022-10-15T23:04:01.878Z,999.90
2022-10-15T23:06:29.721Z,999.90
2022-10-15T23:08:57.917Z,999.90
2022-10-15T23:11:32.265Z,999.90
2022-10-15T23:14:03.602Z,999.90
2022-10-15T23:16:32.418Z,999.90
2022-10-15T23:19:00.556Z,999.90
2022-10-15T23:21:32.934Z,999.90
2022-10-15T23:24:00.869Z,999.90
2022-10-15T23:29:02.091Z,999.90
2022-10-15T23:31:30.413Z,999.90
2022-10-15T23:33:57.970Z,999.90
2022-10-15T23:36:25.776Z,999.90
2022-10-15T23:38:57.197Z,999.90
2022-10-15T23:41:24.744Z,999.90
2022-10-15T23:43:52.114Z,999.90
2022-10-15T23:46:19.462Z,999.90
2022-10-15T23:48:47.082Z,999.90
2022-10-15T23:51:17.142Z,999.90
2022-10-15T23:56:17.595Z,999.90
2022-10-15T23:58:49.020Z,999.90
